createdAt,value
2018-11-29T00:00:46.133Z,101996.98
2018-11-29T00:03:15.587Z,102000.83
2018-11-29T00:05:45.126Z,101989.56
2018-11-29T00:08:14.552Z,101987.52
2018-11-29T00:10:44.045Z,101993.15
2018-11-29T00:13:13.547Z,101998.11
2018-11-29T00:15:43.047Z,101994.77
2018-11-29T00:18:12.539Z,101981.20
2018-11-29T00:20:42.029Z,101976.59
2018-11-29T00:23:11.662Z,101991.95
2018-11-29T00:25:41.121Z,101992.98
2018-11-29T00:28:10.673Z,101987.73
2018-11-29T00:30:40.205Z,101991.73
2018-11-29T00:33:09.686Z,101992.52
2018-11-29T00:35:39.149Z,101976.51
2018-11-29T00:38:08.788Z,101985.47
2018-11-29T00:40:38.293Z,101977.53
2018-11-29T00:43:07.769Z,101977.28
2018-11-29T00:45:37.231Z,101978.44
2018-11-29T00:48:06.824Z,101969.86
2018-11-29T00:50:36.344Z,101977.45
2018-11-29T00:53:05.930Z,101972.97
2018-11-29T00:55:35.465Z,101979.50
2018-11-29T00:58:04.963Z,101982.19
2018-11-29T01:00:34.675Z,101993.97
2018-11-29T01:03:04.179Z,101985.77
2018-11-29T01:05:33.612Z,101976.72
2018-11-29T01:08:03.179Z,101977.20
2018-11-29T01:10:32.612Z,101979.88
2018-11-29T01:13:02.083Z,101979.12
2018-11-29T01:15:31.541Z,101971.44
2018-11-29T01:18:01.012Z,101973.23
2018-11-29T01:20:30.517Z,101974.38
2018-11-29T01:23:00.008Z,101967.85
2018-11-29T01:25:29.504Z,101971.60
2018-11-29T01:27:58.983Z,101966.87
2018-11-29T01:30:28.513Z,101963.80
2018-11-29T01:32:58.021Z,101960.47
2018-11-29T01:35:27.440Z,101955.61
2018-11-29T01:37:56.909Z,101953.17
2018-11-29T01:40:26.354Z,101951.64
2018-11-29T01:42:57.967Z,101940.12
2018-11-29T01:45:27.658Z,101944.60
2018-11-29T01:47:57.134Z,101938.20
2018-11-29T01:50:26.600Z,101933.47
2018-11-29T01:52:56.080Z,101933.34
2018-11-29T01:55:25.527Z,101935.30
2018-11-29T01:57:55.040Z,101928.27
2018-11-29T02:00:24.508Z,101917.64
2018-11-29T02:02:54.360Z,101912.14
2018-11-29T02:05:23.828Z,101916.88
2018-11-29T02:07:53.372Z,101907.15
2018-11-29T02:10:26.095Z,101896.14
2018-11-29T02:12:56.204Z,101894.73
2018-11-29T02:15:25.669Z,101891.41
2018-11-29T02:17:55.284Z,101886.80
2018-11-29T02:20:24.740Z,101882.97
2018-11-29T02:22:54.272Z,101888.08
2018-11-29T02:25:23.767Z,101871.55
2018-11-29T02:27:53.376Z,101876.02
2018-11-29T02:30:23.682Z,101863.22
2018-11-29T02:32:53.518Z,101862.45
2018-11-29T02:35:23.050Z,101865.39
2018-11-29T02:37:52.524Z,101871.14
2018-11-29T02:40:21.996Z,101877.37
2018-11-29T02:42:52.116Z,101869.05
2018-11-29T02:45:23.517Z,101863.41
2018-11-29T02:47:52.989Z,101873.52
2018-11-29T02:50:22.482Z,101877.60
2018-11-29T02:52:52.241Z,101879.48
2018-11-29T02:55:21.987Z,101879.34
2018-11-29T02:57:51.749Z,101882.41
2018-11-29T03:00:21.533Z,101885.09
2018-11-29T03:02:51.282Z,101868.84
2018-11-29T03:05:21.029Z,101869.73
2018-11-29T03:07:50.725Z,101858.72
2018-11-29T03:10:26.537Z,101864.23
2018-11-29T03:12:56.401Z,101864.88
2018-11-29T03:15:26.191Z,101853.11
2018-11-29T03:17:55.936Z,101854.00
2018-11-29T03:20:25.665Z,101865.02
2018-11-29T03:22:55.506Z,101861.05
2018-11-29T03:25:25.236Z,101853.79
2018-11-29T03:27:54.933Z,101867.75
2018-11-29T03:30:24.633Z,101857.89
2018-11-29T03:32:54.363Z,101854.44
2018-11-29T03:35:24.205Z,101870.69
2018-11-29T03:37:53.896Z,101859.05
2018-11-29T03:40:23.726Z,101864.05
2018-11-29T03:42:53.481Z,101865.32
2018-11-29T03:45:23.217Z,101858.80
2018-11-29T03:47:52.901Z,101861.75
2018-11-29T03:50:22.679Z,101863.92
2018-11-29T03:52:52.372Z,101862.77
2018-11-29T03:55:22.081Z,101862.24
2018-11-29T03:57:51.804Z,101857.34
2018-11-29T04:00:21.497Z,101847.34
2018-11-29T04:02:51.294Z,101854.76
2018-11-29T04:05:20.999Z,101861.16
2018-11-29T04:07:50.749Z,101855.66
2018-11-29T04:10:20.441Z,101855.27
2018-11-29T04:12:50.360Z,101856.67
2018-11-29T04:15:20.139Z,101847.70
2018-11-29T04:17:49.856Z,101835.41
2018-11-29T04:20:19.570Z,101838.48
2018-11-29T04:22:49.276Z,101843.48
2018-11-29T04:25:19.048Z,101843.36
2018-11-29T04:27:48.801Z,101840.03
2018-11-29T04:30:18.696Z,101850.27
2018-11-29T04:32:48.431Z,101851.04
2018-11-29T04:35:18.153Z,101865.13
2018-11-29T04:37:47.879Z,101862.05
2018-11-29T04:40:18.572Z,101862.56
2018-11-29T04:42:48.515Z,101851.81
2018-11-29T04:45:18.954Z,101846.45
2018-11-29T04:47:48.786Z,101841.08
2018-11-29T04:50:18.780Z,101829.05
2018-11-29T04:52:48.517Z,101821.79
2018-11-29T04:55:18.228Z,101837.15
2018-11-29T04:57:47.937Z,101823.92
2018-11-29T05:00:17.995Z,101821.66
2018-11-29T05:02:47.741Z,101812.70
2018-11-29T05:05:17.472Z,101820.00
2018-11-29T05:07:47.241Z,101823.72
2018-11-29T05:10:17.787Z,101828.84
2018-11-29T05:12:48.324Z,101815.77
2018-11-29T05:15:18.165Z,101821.79
2018-11-29T05:17:47.951Z,101809.20
2018-11-29T05:20:17.746Z,101805.48
2018-11-29T05:22:47.508Z,101801.77
2018-11-29T05:25:17.351Z,101792.53
2018-11-29T05:27:47.063Z,101795.22
2018-11-29T05:30:16.925Z,101804.42
2018-11-29T05:32:46.801Z,101796.95
2018-11-29T05:35:16.595Z,101798.98
2018-11-29T05:37:46.417Z,101796.66
2018-11-29T05:40:16.232Z,101801.52
2018-11-29T05:42:46.101Z,101791.78
2018-11-29T05:45:18.732Z,101797.80
2018-11-29T05:47:48.575Z,101800.09
2018-11-29T05:50:18.372Z,101794.28
2018-11-29T05:52:48.163Z,101806.44
2018-11-29T05:55:17.908Z,101798.75
2018-11-29T05:57:47.689Z,101817.19
2018-11-29T06:00:17.533Z,101808.34
2018-11-29T06:02:47.250Z,101802.57
2018-11-29T06:05:17.764Z,101801.41
2018-11-29T06:07:47.465Z,101785.27
2018-11-29T06:10:19.330Z,101796.28
2018-11-29T06:12:49.504Z,101784.76
2018-11-29T06:15:19.369Z,101785.65
2018-11-29T06:17:49.148Z,101783.48
2018-11-29T06:20:20.250Z,101774.90
2018-11-29T06:22:50.023Z,101780.41
2018-11-29T06:25:19.742Z,101783.86
2018-11-29T06:27:49.458Z,101785.65
2018-11-29T06:30:22.304Z,101792.56
2018-11-29T06:32:53.205Z,101801.92
2018-11-29T06:35:22.979Z,101792.68
2018-11-29T06:37:52.697Z,101792.38
2018-11-29T06:40:22.544Z,101772.63
2018-11-29T06:42:52.761Z,101768.52
2018-11-29T06:45:23.150Z,101768.91
2018-11-29T06:47:53.891Z,101776.98
2018-11-29T06:50:23.728Z,101767.50
2018-11-29T06:52:53.697Z,101769.29
2018-11-29T06:55:25.408Z,101773.14
2018-11-29T06:57:55.557Z,101763.66
2018-11-29T07:00:31.428Z,101772.90
2018-11-29T07:03:01.236Z,101782.13
2018-11-29T07:05:31.072Z,101777.19
2018-11-29T07:08:00.826Z,101770.16
2018-11-29T07:10:33.270Z,101775.79
2018-11-29T07:13:04.486Z,101777.84
2018-11-29T07:15:34.237Z,101775.02
2018-11-29T07:18:04.356Z,101770.13
2018-11-29T07:20:34.070Z,101772.00
2018-11-29T07:23:03.872Z,101775.31
2018-11-29T07:25:33.581Z,101783.23
2018-11-29T07:28:03.337Z,101757.84
2018-11-29T07:30:33.122Z,101750.48
2018-11-29T07:33:02.928Z,101762.06
2018-11-29T07:35:32.690Z,101773.45
2018-11-29T07:38:02.407Z,101776.02
2018-11-29T07:40:32.595Z,101766.88
2018-11-29T07:43:02.357Z,101768.76
2018-11-29T07:45:32.088Z,101779.56
2018-11-29T07:48:01.823Z,101778.00
2018-11-29T07:50:31.578Z,101778.77
2018-11-29T07:53:01.401Z,101763.12
2018-11-29T07:55:31.136Z,101779.14
2018-11-29T07:58:00.923Z,101747.61
2018-11-29T08:00:30.754Z,101735.21
2018-11-29T08:03:00.461Z,101728.91
2018-11-29T08:05:30.161Z,101722.76
2018-11-29T08:07:59.896Z,101738.57
2018-11-29T08:10:29.588Z,101740.04
2018-11-29T08:12:59.336Z,101731.91
2018-11-29T08:15:29.049Z,101729.41
2018-11-29T08:17:58.741Z,101729.28
2018-11-29T08:20:28.415Z,101737.89
2018-11-29T08:22:58.140Z,101738.27
2018-11-29T08:25:27.860Z,101737.02
2018-11-29T08:27:57.573Z,101731.70
2018-11-29T08:30:27.298Z,101731.70
2018-11-29T08:32:56.991Z,101726.30
2018-11-29T08:35:26.742Z,101720.97
2018-11-29T08:37:56.472Z,101707.23
2018-11-29T08:40:26.198Z,101709.91
2018-11-29T08:42:55.932Z,101695.77
2018-11-29T08:45:25.724Z,101695.27
2018-11-29T08:47:55.398Z,101708.16
2018-11-29T08:50:25.149Z,101698.86
2018-11-29T08:52:54.816Z,101705.73
2018-11-29T08:55:24.719Z,101713.88
2018-11-29T08:57:54.466Z,101713.41
2018-11-29T09:00:24.288Z,101710.79
2018-11-29T09:02:53.998Z,101721.53
2018-11-29T09:05:23.804Z,101721.42
2018-11-29T09:07:53.480Z,101704.65
2018-11-29T09:10:24.420Z,101701.53
2018-11-29T09:12:54.378Z,101709.73
2018-11-29T09:15:24.165Z,101702.49
2018-11-29T09:17:54.024Z,101698.97
2018-11-29T09:20:24.036Z,101704.41
2018-11-29T09:22:53.815Z,101710.98
2018-11-29T09:25:24.232Z,101702.23
2018-11-29T09:27:53.959Z,101706.79
2018-11-29T09:30:24.571Z,101690.16
2018-11-29T09:32:55.279Z,101683.92
2018-11-29T09:35:25.049Z,101673.26
2018-11-29T09:37:54.735Z,101666.37
2018-11-29T09:40:24.443Z,101675.05
2018-11-29T09:42:54.257Z,101670.40
2018-11-29T09:45:24.635Z,101674.20
2018-11-29T09:47:55.850Z,101670.16
2018-11-29T09:50:26.700Z,101653.36
2018-11-29T09:52:56.477Z,101651.41
2018-11-29T09:55:26.224Z,101659.33
2018-11-29T09:57:56.025Z,101634.64
2018-11-29T10:00:28.478Z,101631.51
2018-11-29T10:03:12.964Z,101629.75
2018-11-29T10:05:44.828Z,101637.30
2018-11-29T10:08:16.552Z,101634.14
2018-11-29T10:10:46.444Z,101641.39
2018-11-29T10:13:16.156Z,101635.83
2018-11-29T10:15:45.944Z,101640.94
2018-11-29T10:18:15.768Z,101635.58
2018-11-29T10:20:45.591Z,101619.11
2018-11-29T10:23:15.486Z,101621.53
2018-11-29T10:25:45.317Z,101614.64
2018-11-29T10:28:16.733Z,101620.19
2018-11-29T10:30:52.245Z,101599.30
2018-11-29T10:33:22.244Z,101591.19
2018-11-29T10:35:58.721Z,101581.88
2018-11-29T10:38:22.155Z,101589.13
2018-11-29T10:40:51.857Z,101573.20
2018-11-29T10:43:21.636Z,101603.70
2018-11-29T10:45:51.439Z,101567.41
2018-11-29T10:48:23.201Z,101559.80
2018-11-29T10:50:52.918Z,101569.30
2018-11-29T10:53:22.643Z,101561.84
2018-11-29T10:55:52.658Z,101562.49
2018-11-29T10:58:22.754Z,101560.26
2018-11-29T11:00:57.770Z,101561.27
2018-11-29T11:03:27.608Z,101570.50
2018-11-29T11:05:57.393Z,101577.55
2018-11-29T11:08:27.229Z,101563.92
2018-11-29T11:10:57.092Z,101554.14
2018-11-29T11:13:26.817Z,101552.02
2018-11-29T11:15:56.529Z,101553.12
2018-11-29T11:18:26.347Z,101537.66
2018-11-29T11:20:56.023Z,101539.94
2018-11-29T11:23:25.799Z,101543.16
2018-11-29T11:25:55.614Z,101539.27
2018-11-29T11:28:25.410Z,101531.42
2018-11-29T11:30:55.244Z,101534.55
2018-11-29T11:33:25.032Z,101548.20
2018-11-29T11:35:54.751Z,101546.20
2018-11-29T11:38:24.473Z,101535.69
2018-11-29T11:40:54.432Z,101542.86
2018-11-29T11:43:24.133Z,101536.20
2018-11-29T11:45:53.912Z,101543.53
2018-11-29T11:48:23.645Z,101546.42
2018-11-29T11:50:53.321Z,101534.33
2018-11-29T11:53:23.043Z,101515.09
2018-11-29T11:55:53.744Z,101515.19
2018-11-29T11:58:22.536Z,101520.43
2018-11-29T12:00:52.381Z,101505.95
2018-11-29T12:03:22.250Z,101527.05
2018-11-29T12:05:52.009Z,101500.70
2018-11-29T12:08:21.822Z,101491.98
2018-11-29T12:10:53.851Z,101494.48
2018-11-29T12:13:26.677Z,101489.41
2018-11-29T12:15:56.640Z,101487.33
2018-11-29T12:18:26.346Z,101488.70
2018-11-29T12:20:56.232Z,101485.11
2018-11-29T12:23:25.973Z,101475.13
2018-11-29T12:25:55.654Z,101477.48
2018-11-29T12:28:25.422Z,101462.73
2018-11-29T12:30:55.399Z,101462.19
2018-11-29T12:33:25.118Z,101464.86
2018-11-29T12:35:54.880Z,101456.90
2018-11-29T12:38:24.741Z,101469.79
2018-11-29T12:40:54.451Z,101469.88
2018-11-29T12:43:24.240Z,101472.28
2018-11-29T12:45:54.178Z,101478.51
2018-11-29T12:48:23.864Z,101459.25
2018-11-29T12:50:53.606Z,101445.95
2018-11-29T12:53:23.784Z,101435.33
2018-11-29T12:55:53.482Z,101437.98
2018-11-29T12:58:23.289Z,101433.23
2018-11-29T13:00:53.093Z,101431.94
2018-11-29T13:03:22.761Z,101434.74
2018-11-29T13:05:52.486Z,101422.83
2018-11-29T13:08:25.870Z,101438.95
2018-11-29T13:10:55.761Z,101434.38
2018-11-29T13:13:27.557Z,101439.21
2018-11-29T13:15:55.521Z,101430.36
2018-11-29T13:18:25.245Z,101436.14
2018-11-29T13:21:03.727Z,101434.53
2018-11-29T13:23:33.416Z,101428.25
2018-11-29T13:26:03.368Z,101416.80
2018-11-29T13:28:33.042Z,101420.27
2018-11-29T13:31:02.760Z,101421.56
2018-11-29T13:33:33.067Z,101416.80
2018-11-29T13:36:02.660Z,101419.78
2018-11-29T13:38:32.380Z,101417.12
2018-11-29T13:41:02.250Z,101419.70
2018-11-29T13:43:32.291Z,101410.59
2018-11-29T13:46:02.082Z,101406.55
2018-11-29T13:48:31.795Z,101405.49
2018-11-29T13:51:01.563Z,101404.47
2018-11-29T13:53:31.264Z,101397.45
2018-11-29T13:56:01.144Z,101392.13
2018-11-29T13:58:30.842Z,101387.11
2018-11-29T14:01:00.748Z,101382.70
2018-11-29T14:03:30.465Z,101386.41
2018-11-29T14:06:00.806Z,101367.30
2018-11-29T14:08:30.552Z,101364.95
2018-11-29T14:11:00.232Z,101370.34
2018-11-29T14:13:29.906Z,101366.73
2018-11-29T14:15:59.606Z,101366.66
2018-11-29T14:18:29.382Z,101367.38
2018-11-29T14:20:59.140Z,101368.48
2018-11-29T14:23:28.868Z,101349.38
2018-11-29T14:25:58.596Z,101351.02
2018-11-29T14:28:28.374Z,101348.36
2018-11-29T14:30:58.125Z,101362.05
2018-11-29T14:33:27.824Z,101367.20
2018-11-29T14:35:57.534Z,101385.97
2018-11-29T14:38:27.311Z,101382.41
2018-11-29T14:40:57.030Z,101386.59
2018-11-29T14:43:26.732Z,101387.30
2018-11-29T14:45:56.471Z,101374.91
2018-11-29T14:48:26.171Z,101370.16
2018-11-29T14:51:02.164Z,101361.84
2018-11-29T14:53:25.829Z,101356.16
2018-11-29T14:55:55.617Z,101357.36
2018-11-29T14:58:25.313Z,101355.18
2018-11-29T15:00:55.056Z,101355.89
2018-11-29T15:03:24.931Z,101367.41
2018-11-29T15:05:54.618Z,101373.89
2018-11-29T15:08:24.300Z,101364.02
2018-11-29T15:10:54.570Z,101357.89
2018-11-29T15:13:24.248Z,101375.27
2018-11-29T15:15:53.963Z,101362.69
2018-11-29T15:18:23.681Z,101356.74
2018-11-29T15:20:53.377Z,101366.47
2018-11-29T15:23:23.104Z,101354.22
2018-11-29T15:25:52.846Z,101358.73
2018-11-29T15:28:22.603Z,101364.11
2018-11-29T15:30:52.340Z,101360.64
2018-11-29T15:33:22.052Z,101352.20
2018-11-29T15:35:51.809Z,101351.90
2018-11-29T15:38:21.508Z,101363.58
2018-11-29T15:40:51.308Z,101361.89
2018-11-29T15:43:21.020Z,101360.20
2018-11-29T15:45:50.797Z,101358.08
2018-11-29T15:48:20.541Z,101365.80
2018-11-29T15:50:50.281Z,101362.78
2018-11-29T15:53:20.090Z,101347.32
2018-11-29T15:55:49.797Z,101352.88
2018-11-29T15:58:19.660Z,101355.90
2018-11-29T16:00:49.356Z,101363.58
2018-11-29T16:03:19.080Z,101365.17
2018-11-29T16:05:48.828Z,101372.23
2018-11-29T16:08:18.555Z,101371.66
2018-11-29T16:10:48.260Z,101367.22
2018-11-29T16:13:17.966Z,101363.61
2018-11-29T16:15:47.701Z,101366.00
2018-11-29T16:18:17.506Z,101363.25
2018-11-29T16:20:47.577Z,101372.48
2018-11-29T16:23:17.337Z,101363.69
2018-11-29T16:25:47.169Z,101354.84
2018-11-29T16:28:16.952Z,101345.25
2018-11-29T16:30:53.483Z,101344.27
2018-11-29T16:33:31.866Z,101344.18
2018-11-29T16:36:01.644Z,101350.53
2018-11-29T16:38:31.539Z,101346.92
2018-11-29T16:41:01.314Z,101354.86
2018-11-29T16:43:31.113Z,101347.93
2018-11-29T16:46:00.870Z,101342.60
2018-11-29T16:48:30.612Z,101342.81
2018-11-29T16:51:00.518Z,101330.66
2018-11-29T16:53:30.194Z,101319.07
2018-11-29T16:55:59.998Z,101323.37
2018-11-29T16:58:31.428Z,101308.72
2018-11-29T17:01:01.209Z,101315.86
2018-11-29T17:03:31.057Z,101311.73
2018-11-29T17:06:00.790Z,101302.33
2018-11-29T17:08:30.663Z,101287.69
2018-11-29T17:11:00.424Z,101289.86
2018-11-29T17:13:30.280Z,101294.11
2018-11-29T17:16:00.134Z,101310.26
2018-11-29T17:18:29.857Z,101301.07
2018-11-29T17:20:59.569Z,101305.18
2018-11-29T17:23:29.379Z,101293.91
2018-11-29T17:25:59.091Z,101301.35
2018-11-29T17:28:29.049Z,101293.14
2018-11-29T17:30:58.916Z,101290.66
2018-11-29T17:33:28.695Z,101282.45
2018-11-29T17:35:58.409Z,101289.10
2018-11-29T17:38:28.091Z,101280.84
2018-11-29T17:40:58.040Z,101280.34
2018-11-29T17:43:27.738Z,101285.98
2018-11-29T17:45:57.436Z,101284.20
2018-11-29T17:48:27.190Z,101277.69
2018-11-29T17:50:56.875Z,101273.83
2018-11-29T17:53:26.671Z,101279.06
2018-11-29T17:55:56.479Z,101293.21
2018-11-29T17:58:26.364Z,101287.58
2018-11-29T18:00:56.210Z,101287.09
2018-11-29T18:03:25.920Z,101276.70
2018-11-29T18:05:55.643Z,101277.90
2018-11-29T18:08:25.326Z,101273.95
2018-11-29T18:10:58.341Z,101275.73
2018-11-29T18:13:37.053Z,101271.95
2018-11-29T18:16:07.520Z,101269.78
2018-11-29T18:18:37.255Z,101270.19
2018-11-29T18:21:07.120Z,101261.89
2018-11-29T18:23:36.804Z,101268.63
2018-11-29T18:26:06.975Z,101266.36
2018-11-29T18:28:36.720Z,101256.80
2018-11-29T18:31:06.634Z,101266.42
2018-11-29T18:33:36.345Z,101258.52
2018-11-29T18:36:06.665Z,101251.59
2018-11-29T18:38:36.394Z,101249.33
2018-11-29T18:41:06.445Z,101250.92
2018-11-29T18:43:36.377Z,101258.18
2018-11-29T18:46:06.326Z,101256.70
2018-11-29T18:48:36.058Z,101246.64
2018-11-29T18:51:06.088Z,101235.38
2018-11-29T18:53:35.792Z,101227.27
2018-11-29T18:56:05.756Z,101242.99
2018-11-29T18:58:35.473Z,101244.77
2018-11-29T19:01:05.383Z,101237.84
2018-11-29T19:03:35.124Z,101239.84
2018-11-29T19:06:04.976Z,101242.41
2018-11-29T19:08:34.693Z,101257.67
2018-11-29T19:11:04.426Z,101240.08
2018-11-29T19:13:34.346Z,101244.73
2018-11-29T19:16:04.029Z,101234.36
2018-11-29T19:18:33.748Z,101223.40
2018-11-29T19:21:03.541Z,101222.02
2018-11-29T19:23:33.329Z,101224.41
2018-11-29T19:26:03.028Z,101211.80
2018-11-29T19:28:32.716Z,101219.32
2018-11-29T19:31:02.457Z,101215.67
2018-11-29T19:33:32.161Z,101215.00
2018-11-29T19:36:01.970Z,101222.61
2018-11-29T19:38:31.803Z,101223.73
2018-11-29T19:41:01.598Z,101220.19
2018-11-29T19:43:31.314Z,101216.73
2018-11-29T19:46:01.052Z,101210.70
2018-11-29T19:48:30.800Z,101208.04
2018-11-29T19:51:00.653Z,101206.75
2018-11-29T19:53:30.422Z,101195.50
2018-11-29T19:56:02.113Z,101198.86
2018-11-29T19:58:31.814Z,101187.30
2018-11-29T20:01:01.543Z,101187.79
2018-11-29T20:03:31.355Z,101193.23
2018-11-29T20:06:01.153Z,101188.79
2018-11-29T20:08:30.984Z,101186.95
2018-11-29T20:11:00.814Z,101191.11
2018-11-29T20:13:30.563Z,101186.86
2018-11-29T20:16:00.298Z,101189.33
2018-11-29T20:18:30.030Z,101173.34
2018-11-29T20:20:59.735Z,101177.09
2018-11-29T20:23:29.542Z,101189.05
2018-11-29T20:25:59.357Z,101187.67
2018-11-29T20:28:29.132Z,101184.12
2018-11-29T20:30:58.863Z,101182.44
2018-11-29T20:33:28.644Z,101182.44
2018-11-29T20:35:58.443Z,101175.53
2018-11-29T20:38:28.235Z,101165.95
2018-11-29T20:40:57.944Z,101165.00
2018-11-29T20:43:27.740Z,101167.17
2018-11-29T20:45:58.345Z,101156.91
2018-11-29T20:48:29.904Z,101163.72
2018-11-29T20:51:01.087Z,101159.47
2018-11-29T20:53:37.762Z,101166.59
2018-11-29T20:56:13.616Z,101162.34
2018-11-29T20:58:43.326Z,101161.45
2018-11-29T21:01:13.132Z,101151.18
2018-11-29T21:03:42.930Z,101149.41
2018-11-29T21:06:14.385Z,101149.22
2018-11-29T21:08:44.163Z,101155.84
2018-11-29T21:11:13.960Z,101148.93
2018-11-29T21:13:43.752Z,101139.85
2018-11-29T21:16:13.530Z,101136.00
2018-11-29T21:18:43.393Z,101136.39
2018-11-29T21:21:13.072Z,101138.56
2018-11-29T21:23:42.846Z,101140.58
2018-11-29T21:26:12.622Z,101138.90
2018-11-29T21:28:42.301Z,101145.81
2018-11-29T21:31:12.137Z,101123.98
2018-11-29T21:33:41.982Z,101134.66
2018-11-29T21:36:11.648Z,101131.99
2018-11-29T21:38:41.321Z,101124.78
2018-11-29T21:41:11.091Z,101119.25
2018-11-29T21:43:40.862Z,101125.27
2018-11-29T21:47:16.578Z,101108.09
2018-11-29T21:49:46.299Z,101107.11
2018-11-29T21:52:16.012Z,101099.60
2018-11-29T21:54:45.928Z,101096.55
2018-11-29T21:57:15.614Z,101117.14
2018-11-29T21:59:45.384Z,101096.70
2018-11-29T22:02:15.409Z,101103.12
2018-11-29T22:04:45.449Z,101095.91
2018-11-29T22:07:15.198Z,101089.67
2018-11-29T22:09:45.100Z,101081.77
2018-11-29T22:12:15.104Z,101077.21
2018-11-29T22:14:44.939Z,101083.78
2018-11-29T22:17:14.702Z,101082.98
2018-11-29T22:19:44.448Z,101076.45
2018-11-29T22:22:14.289Z,101075.44
2018-11-29T22:24:44.041Z,101081.55
2018-11-29T22:27:13.754Z,101072.32
2018-11-29T22:29:43.524Z,101083.57
2018-11-29T22:32:13.252Z,101063.60
2018-11-29T22:34:43.030Z,101064.98
2018-11-29T22:37:12.748Z,101054.40
2018-11-29T22:39:42.484Z,101044.70
2018-11-29T22:42:12.200Z,101037.08
2018-11-29T22:44:41.975Z,101043.56
2018-11-29T22:47:11.706Z,101057.78
2018-11-29T22:49:41.426Z,101063.81
2018-11-29T22:52:11.334Z,101077.63
2018-11-29T22:54:41.091Z,101079.01
2018-11-29T22:57:11.025Z,101099.56
2018-11-29T22:59:41.512Z,101119.23
2018-11-29T23:02:11.461Z,101120.02
2018-11-29T23:04:41.376Z,101112.23
2018-11-29T23:07:11.112Z,101134.55
2018-11-29T23:09:40.887Z,101124.58
2018-11-29T23:12:10.601Z,101126.75
2018-11-29T23:14:40.356Z,101124.09
2018-11-29T23:17:10.104Z,101120.23
2018-11-29T23:19:39.960Z,101127.89
2018-11-29T23:22:09.855Z,101118.01
2018-11-29T23:24:39.592Z,101117.12
2018-11-29T23:27:09.375Z,101122.66
2018-11-29T23:29:39.149Z,101129.48
2018-11-29T23:32:08.932Z,101139.75
2018-11-29T23:34:38.680Z,101126.81
2018-11-29T23:37:08.390Z,101130.85
2018-11-29T23:39:38.174Z,101113.76
2018-11-29T23:42:07.973Z,101099.28
2018-11-29T23:44:37.695Z,101083.47
2018-11-29T23:47:07.628Z,101085.43
2018-11-29T23:49:37.340Z,101080.38
2018-11-29T23:52:07.589Z,101088.09
2018-11-29T23:54:37.305Z,101098.77
2018-11-29T23:57:07.817Z,101089.77
2018-11-29T23:59:37.782Z,101096.20
